Airfield :
LOGIN :

Register | Disclaimer

   EN    FR    IT 

 










Legend :    VFR   Marginal VFR   IFR   Intensive IFR   Very Intensive IFR
Visi :
Ceiling :
>= 8 km
>= 3000ft
5 to 8 km
1000 to 3000 ft
1500m to 5 km
500 to 1000 ft
800 to 1500m
200 to 500 ft
< 800m
< 200 ft
Symbols :   Thunderstorms  Fog  Heavy snow  Heavy precipitations  Wind > 20 kt
SIGMETs :     Misc.  Thunderstorms  Icing  Turbulence  Mountain Waves  Volcanic Ashes







- Airport Elevation : 20 ft


EBFN - Koksijde

CURRENT METAR :
  • 210517Z AUTO 20003KT 2100 BR SCT180/// 04/03 Q1025 YLO

EXPIRED METARs :
  • 210455Z AUTO 20003KT 1500 BR NCD 03/02 Q1025 AMB
  • 210442Z AUTO 22003KT 1500 BR NCD 03/02 Q1025 AMB
  • 210425Z AUTO 23003KT 1700 BR NCD 02/02 Q1025 YLO
  • 210355Z AUTO 22003KT 2400 BR NCD 03/03 Q1025 YLO
  • 210325Z AUTO 21004KT 2700 BR NCD 04/03 Q1025 YLO
  • 210317Z AUTO 20004KT 2400 BR NCD 03/02 Q1025 YLO
  • 210255Z AUTO 21003KT 1500 BR NCD 03/02 Q1025 AMB
  • 210225Z AUTO 21004KT 2000 BR NCD 03/02 Q1025 YLO

TAF TAF EBFN
Valid from the 20 at 19:00 until the 21 at 07:00 UTC


201541Z 2019/2107 22010KT 9999 FEW025 SCT130
TEMPO 2100/2107 4000 BR SCT100
PROB30
TEMPO 2102/2107 2000 BR BKN050
No reported NOTAMs for that airfield.



MET'MAP, your aeronautical weather chart ! - Copyright ORBIFLY December 2007 - Disclaimer

ORBIFLY MET'MAP TEAM :

Programming & Development : Alexandra Zaïnal
Concept & Development : Baudouin d'Aumeries
Co-Development & Prog : Marc-Olivier Méhu
Technical & hardware support : Manuel Goepfert

Contact : metmap@orbifly.com




SOURCES & CREDITS :

   NOAA